sensor_id;sensor_type;location;lat;lon;timestamp;P1;durP1;ratioP1;P2;durP2;ratioP2
47866;SDS011;33628;50.806;11.586;2024-01-30T00:00:42;14.88;;;7.32;;
47866;SDS011;33628;50.806;11.586;2024-01-30T00:03:10;17.40;;;7.15;;
47866;SDS011;33628;50.806;11.586;2024-01-30T00:05:37;19.85;;;7.43;;
47866;SDS011;33628;50.806;11.586;2024-01-30T00:08:03;16.40;;;7.40;;
47866;SDS011;33628;50.806;11.586;2024-01-30T00:10:30;15.60;;;7.47;;
47866;SDS011;33628;50.806;11.586;2024-01-30T00:12:57;13.68;;;7.53;;
47866;SDS011;33628;50.806;11.586;2024-01-30T00:15:24;14.68;;;6.78;;
47866;SDS011;33628;50.806;11.586;2024-01-30T00:17:50;14.98;;;7.70;;
47866;SDS011;33628;50.806;11.586;2024-01-30T00:20:20;14.13;;;6.95;;
47866;SDS011;33628;50.806;11.586;2024-01-30T00:22:46;14.63;;;6.90;;
47866;SDS011;33628;50.806;11.586;2024-01-30T00:25:13;14.73;;;7.25;;
47866;SDS011;33628;50.806;11.586;2024-01-30T00:27:40;12.95;;;7.22;;
47866;SDS011;33628;50.806;11.586;2024-01-30T00:30:07;15.57;;;7.22;;
47866;SDS011;33628;50.806;11.586;2024-01-30T00:32:34;13.27;;;6.70;;
47866;SDS011;33628;50.806;11.586;2024-01-30T00:35:01;13.50;;;6.85;;
47866;SDS011;33628;50.806;11.586;2024-01-30T00:37:29;11.70;;;6.18;;
47866;SDS011;33628;50.806;11.586;2024-01-30T00:39:57;14.02;;;7.32;;
47866;SDS011;33628;50.806;11.586;2024-01-30T00:42:23;15.25;;;7.38;;
47866;SDS011;33628;50.806;11.586;2024-01-30T00:44:50;14.95;;;6.85;;
47866;SDS011;33628;50.806;11.586;2024-01-30T00:47:16;15.32;;;6.65;;
47866;SDS011;33628;50.806;11.586;2024-01-30T00:49:43;13.45;;;7.03;;
47866;SDS011;33628;50.806;11.586;2024-01-30T00:52:09;13.13;;;5.95;;
47866;SDS011;33628;50.806;11.586;2024-01-30T00:54:37;14.00;;;6.15;;
47866;SDS011;33628;50.806;11.586;2024-01-30T00:57:04;16.90;;;7.32;;
47866;SDS011;33628;50.806;11.586;2024-01-30T00:59:31;14.43;;;7.18;;
47866;SDS011;33628;50.806;11.586;2024-01-30T01:01:57;13.63;;;7.35;;
47866;SDS011;33628;50.806;11.586;2024-01-30T01:04:25;15.88;;;7.43;;
47866;SDS011;33628;50.806;11.586;2024-01-30T01:06:52;15.25;;;6.95;;
47866;SDS011;33628;50.806;11.586;2024-01-30T01:09:19;11.50;;;6.05;;
47866;SDS011;33628;50.806;11.586;2024-01-30T01:11:47;13.38;;;6.93;;
47866;SDS011;33628;50.806;11.586;2024-01-30T01:14:13;18.55;;;6.88;;
47866;SDS011;33628;50.806;11.586;2024-01-30T01:16:40;11.27;;;6.47;;
47866;SDS011;33628;50.806;11.586;2024-01-30T01:19:06;12.82;;;7.00;;
47866;SDS011;33628;50.806;11.586;2024-01-30T01:21:33;14.98;;;7.13;;
47866;SDS011;33628;50.806;11.586;2024-01-30T01:24:00;12.82;;;6.38;;
47866;SDS011;33628;50.806;11.586;2024-01-30T01:26:27;13.70;;;6.72;;
47866;SDS011;33628;50.806;11.586;2024-01-30T01:28:55;11.18;;;6.35;;
47866;SDS011;33628;50.806;11.586;2024-01-30T01:31:24;14.70;;;6.38;;
47866;SDS011;33628;50.806;11.586;2024-01-30T01:33:55;12.85;;;6.47;;
47866;SDS011;33628;50.806;11.586;2024-01-30T01:36:21;17.13;;;6.97;;
47866;SDS011;33628;50.806;11.586;2024-01-30T01:38:49;14.50;;;6.15;;
47866;SDS011;33628;50.806;11.586;2024-01-30T01:41:15;12.18;;;5.82;;
47866;SDS011;33628;50.806;11.586;2024-01-30T01:43:42;15.25;;;6.30;;
47866;SDS011;33628;50.806;11.586;2024-01-30T01:46:10;13.57;;;6.55;;
47866;SDS011;33628;50.806;11.586;2024-01-30T01:48:36;15.25;;;6.55;;
47866;SDS011;33628;50.806;11.586;2024-01-30T01:51:05;11.73;;;6.53;;
47866;SDS011;33628;50.806;11.586;2024-01-30T01:53:32;13.15;;;5.90;;
47866;SDS011;33628;50.806;11.586;2024-01-30T01:55:59;15.77;;;6.97;;
47866;SDS011;33628;50.806;11.586;2024-01-30T01:58:25;13.15;;;7.30;;
47866;SDS011;33628;50.806;11.586;2024-01-30T02:00:57;14.23;;;6.45;;
47866;SDS011;33628;50.806;11.586;2024-01-30T02:03:25;11.77;;;6.35;;
47866;SDS011;33628;50.806;11.586;2024-01-30T02:05:52;14.52;;;6.55;;
47866;SDS011;33628;50.806;11.586;2024-01-30T02:08:19;16.10;;;7.25;;
47866;SDS011;33628;50.806;11.586;2024-01-30T02:10:45;12.40;;;6.47;;
47866;SDS011;33628;50.806;11.586;2024-01-30T02:13:12;9.25;;;5.68;;
47866;SDS011;33628;50.806;11.586;2024-01-30T02:15:38;15.80;;;6.85;;
47866;SDS011;33628;50.806;11.586;2024-01-30T02:18:05;18.15;;;6.88;;
47866;SDS011;33628;50.806;11.586;2024-01-30T02:20:34;12.25;;;6.50;;
47866;SDS011;33628;50.806;11.586;2024-01-30T02:23:03;13.00;;;6.68;;
47866;SDS011;33628;50.806;11.586;2024-01-30T02:25:30;17.30;;;7.18;;
47866;SDS011;33628;50.806;11.586;2024-01-30T02:27:59;11.82;;;6.63;;
47866;SDS011;33628;50.806;11.586;2024-01-30T02:30:26;13.90;;;6.57;;
47866;SDS011;33628;50.806;11.586;2024-01-30T02:32:52;16.17;;;6.43;;
47866;SDS011;33628;50.806;11.586;2024-01-30T02:35:19;12.40;;;6.07;;
47866;SDS011;33628;50.806;11.586;2024-01-30T02:37:45;16.33;;;6.65;;
47866;SDS011;33628;50.806;11.586;2024-01-30T02:40:13;14.95;;;6.13;;
47866;SDS011;33628;50.806;11.586;2024-01-30T02:42:40;12.30;;;5.82;;
47866;SDS011;33628;50.806;11.586;2024-01-30T02:45:08;11.88;;;5.60;;
47866;SDS011;33628;50.806;11.586;2024-01-30T02:47:35;12.02;;;6.22;;
47866;SDS011;33628;50.806;11.586;2024-01-30T02:50:02;12.85;;;5.82;;
47866;SDS011;33628;50.806;11.586;2024-01-30T02:52:29;11.60;;;5.72;;
47866;SDS011;33628;50.806;11.586;2024-01-30T02:54:56;12.30;;;6.28;;
47866;SDS011;33628;50.806;11.586;2024-01-30T02:57:24;16.05;;;7.07;;
47866;SDS011;33628;50.806;11.586;2024-01-30T02:59:50;11.85;;;6.13;;
47866;SDS011;33628;50.806;11.586;2024-01-30T03:02:17;14.27;;;6.63;;
47866;SDS011;33628;50.806;11.586;2024-01-30T03:04:44;12.52;;;6.20;;
47866;SDS011;33628;50.806;11.586;2024-01-30T03:07:11;11.98;;;6.38;;
47866;SDS011;33628;50.806;11.586;2024-01-30T03:09:38;16.67;;;6.20;;
47866;SDS011;33628;50.806;11.586;2024-01-30T03:12:04;16.02;;;6.72;;
47866;SDS011;33628;50.806;11.586;2024-01-30T03:14:33;14.95;;;6.22;;
47866;SDS011;33628;50.806;11.586;2024-01-30T03:16:59;13.27;;;6.38;;
47866;SDS011;33628;50.806;11.586;2024-01-30T03:19:26;14.50;;;6.55;;
47866;SDS011;33628;50.806;11.586;2024-01-30T03:21:52;13.38;;;6.35;;
47866;SDS011;33628;50.806;11.586;2024-01-30T03:24:19;14.15;;;6.60;;
47866;SDS011;33628;50.806;11.586;2024-01-30T03:26:46;15.00;;;6.13;;
47866;SDS011;33628;50.806;11.586;2024-01-30T03:29:13;12.25;;;5.57;;
47866;SDS011;33628;50.806;11.586;2024-01-30T03:31:43;11.52;;;6.50;;
47866;SDS011;33628;50.806;11.586;2024-01-30T03:34:10;13.25;;;6.13;;
47866;SDS011;33628;50.806;11.586;2024-01-30T03:36:37;13.35;;;5.85;;
47866;SDS011;33628;50.806;11.586;2024-01-30T03:39:04;10.52;;;5.70;;
47866;SDS011;33628;50.806;11.586;2024-01-30T03:41:31;14.35;;;6.38;;
47866;SDS011;33628;50.806;11.586;2024-01-30T03:43:58;19.23;;;6.65;;
47866;SDS011;33628;50.806;11.586;2024-01-30T03:46:25;12.38;;;6.10;;
47866;SDS011;33628;50.806;11.586;2024-01-30T03:48:53;14.90;;;6.20;;
47866;SDS011;33628;50.806;11.586;2024-01-30T03:51:19;12.02;;;6.05;;
47866;SDS011;33628;50.806;11.586;2024-01-30T03:53:46;13.95;;;6.90;;
47866;SDS011;33628;50.806;11.586;2024-01-30T03:56:13;12.60;;;6.50;;
47866;SDS011;33628;50.806;11.586;2024-01-30T03:58:39;12.60;;;6.55;;
47866;SDS011;33628;50.806;11.586;2024-01-30T04:01:06;10.90;;;6.45;;
47866;SDS011;33628;50.806;11.586;2024-01-30T04:03:33;13.27;;;6.53;;
47866;SDS011;33628;50.806;11.586;2024-01-30T04:06:01;13.35;;;6.18;;
47866;SDS011;33628;50.806;11.586;2024-01-30T04:08:27;13.85;;;6.15;;
47866;SDS011;33628;50.806;11.586;2024-01-30T04:10:54;11.43;;;5.63;;
47866;SDS011;33628;50.806;11.586;2024-01-30T04:13:21;11.73;;;6.10;;
47866;SDS011;33628;50.806;11.586;2024-01-30T04:15:47;14.93;;;5.78;;
47866;SDS011;33628;50.806;11.586;2024-01-30T04:18:14;14.63;;;6.03;;
47866;SDS011;33628;50.806;11.586;2024-01-30T04:20:40;13.40;;;6.05;;
47866;SDS011;33628;50.806;11.586;2024-01-30T04:23:08;15.70;;;6.05;;
47866;SDS011;33628;50.806;11.586;2024-01-30T04:25:35;11.32;;;5.45;;
47866;SDS011;33628;50.806;11.586;2024-01-30T04:28:01;11.95;;;6.22;;
47866;SDS011;33628;50.806;11.586;2024-01-30T04:30:28;12.10;;;6.45;;
47866;SDS011;33628;50.806;11.586;2024-01-30T04:32:54;11.40;;;5.82;;
47866;SDS011;33628;50.806;11.586;2024-01-30T04:35:21;11.45;;;5.75;;
47866;SDS011;33628;50.806;11.586;2024-01-30T04:37:51;12.75;;;5.88;;
47866;SDS011;33628;50.806;11.586;2024-01-30T04:40:20;16.05;;;6.43;;
47866;SDS011;33628;50.806;11.586;2024-01-30T04:42:47;11.80;;;6.72;;
47866;SDS011;33628;50.806;11.586;2024-01-30T04:45:13;15.73;;;7.28;;
47866;SDS011;33628;50.806;11.586;2024-01-30T04:47:40;12.90;;;7.07;;
47866;SDS011;33628;50.806;11.586;2024-01-30T04:50:07;14.10;;;6.95;;
47866;SDS011;33628;50.806;11.586;2024-01-30T04:52:34;14.85;;;7.70;;
47866;SDS011;33628;50.806;11.586;2024-01-30T04:55:01;23.27;;;10.02;;
47866;SDS011;33628;50.806;11.586;2024-01-30T04:57:29;26.55;;;9.95;;
47866;SDS011;33628;50.806;11.586;2024-01-30T04:59:56;20.48;;;9.65;;
47866;SDS011;33628;50.806;11.586;2024-01-30T05:02:23;11.95;;;6.57;;
47866;SDS011;33628;50.806;11.586;2024-01-30T05:04:49;11.38;;;6.30;;
47866;SDS011;33628;50.806;11.586;2024-01-30T05:07:16;15.07;;;6.78;;
47866;SDS011;33628;50.806;11.586;2024-01-30T05:09:43;16.60;;;7.00;;
47866;SDS011;33628;50.806;11.586;2024-01-30T05:12:09;17.52;;;6.97;;
47866;SDS011;33628;50.806;11.586;2024-01-30T05:14:38;13.15;;;7.05;;
47866;SDS011;33628;50.806;11.586;2024-01-30T05:17:05;14.57;;;7.63;;
47866;SDS011;33628;50.806;11.586;2024-01-30T05:19:32;14.93;;;7.55;;
47866;SDS011;33628;50.806;11.586;2024-01-30T05:21:58;14.48;;;6.75;;
47866;SDS011;33628;50.806;11.586;2024-01-30T05:24:25;15.40;;;7.10;;
47866;SDS011;33628;50.806;11.586;2024-01-30T05:26:52;16.38;;;7.55;;
47866;SDS011;33628;50.806;11.586;2024-01-30T05:29:19;14.40;;;6.45;;
47866;SDS011;33628;50.806;11.586;2024-01-30T05:31:47;13.63;;;6.85;;
47866;SDS011;33628;50.806;11.586;2024-01-30T05:34:14;13.63;;;6.30;;
47866;SDS011;33628;50.806;11.586;2024-01-30T05:36:40;15.88;;;7.38;;
47866;SDS011;33628;50.806;11.586;2024-01-30T05:39:07;11.48;;;6.72;;
47866;SDS011;33628;50.806;11.586;2024-01-30T05:41:33;14.32;;;7.18;;
47866;SDS011;33628;50.806;11.586;2024-01-30T05:44:00;15.90;;;7.07;;
47866;SDS011;33628;50.806;11.586;2024-01-30T05:46:26;19.90;;;6.90;;
47866;SDS011;33628;50.806;11.586;2024-01-30T05:48:54;13.35;;;6.22;;
47866;SDS011;33628;50.806;11.586;2024-01-30T05:51:21;13.40;;;6.38;;
47866;SDS011;33628;50.806;11.586;2024-01-30T05:53:48;12.57;;;7.13;;
47866;SDS011;33628;50.806;11.586;2024-01-30T05:56:15;14.77;;;7.03;;
47866;SDS011;33628;50.806;11.586;2024-01-30T05:58:41;17.08;;;7.10;;
47866;SDS011;33628;50.806;11.586;2024-01-30T06:01:09;14.63;;;7.97;;
47866;SDS011;33628;50.806;11.586;2024-01-30T06:03:35;21.35;;;8.85;;
47866;SDS011;33628;50.806;11.586;2024-01-30T06:06:03;19.60;;;7.70;;
47866;SDS011;33628;50.806;11.586;2024-01-30T06:08:30;16.30;;;7.38;;
47866;SDS011;33628;50.806;11.586;2024-01-30T06:10:57;18.77;;;7.68;;
47866;SDS011;33628;50.806;11.586;2024-01-30T06:13:24;12.40;;;6.63;;
47866;SDS011;33628;50.806;11.586;2024-01-30T06:15:50;14.73;;;6.90;;
47866;SDS011;33628;50.806;11.586;2024-01-30T06:18:17;15.32;;;7.85;;
47866;SDS011;33628;50.806;11.586;2024-01-30T06:20:43;18.40;;;8.07;;
47866;SDS011;33628;50.806;11.586;2024-01-30T06:23:11;15.98;;;7.18;;
47866;SDS011;33628;50.806;11.586;2024-01-30T06:25:38;18.35;;;8.32;;
47866;SDS011;33628;50.806;11.586;2024-01-30T06:28:05;17.05;;;7.93;;
47866;SDS011;33628;50.806;11.586;2024-01-30T06:30:32;15.10;;;7.35;;
47866;SDS011;33628;50.806;11.586;2024-01-30T06:32:59;15.93;;;6.95;;
47866;SDS011;33628;50.806;11.586;2024-01-30T06:35:25;17.88;;;8.05;;
47866;SDS011;33628;50.806;11.586;2024-01-30T06:37:52;15.32;;;7.22;;
47866;SDS011;33628;50.806;11.586;2024-01-30T06:40:20;11.63;;;6.20;;
47866;SDS011;33628;50.806;11.586;2024-01-30T06:42:46;16.40;;;6.68;;
47866;SDS011;33628;50.806;11.586;2024-01-30T06:45:13;15.55;;;6.70;;
47866;SDS011;33628;50.806;11.586;2024-01-30T06:47:41;18.00;;;8.07;;
47866;SDS011;33628;50.806;11.586;2024-01-30T06:50:08;18.17;;;8.52;;
47866;SDS011;33628;50.806;11.586;2024-01-30T06:52:35;17.77;;;8.18;;
47866;SDS011;33628;50.806;11.586;2024-01-30T06:55:01;19.90;;;8.40;;
47866;SDS011;33628;50.806;11.586;2024-01-30T06:57:30;17.25;;;8.50;;
47866;SDS011;33628;50.806;11.586;2024-01-30T06:59:56;19.02;;;8.90;;
47866;SDS011;33628;50.806;11.586;2024-01-30T07:02:23;15.85;;;8.07;;
47866;SDS011;33628;50.806;11.586;2024-01-30T07:04:50;17.25;;;8.30;;
47866;SDS011;33628;50.806;11.586;2024-01-30T07:07:16;16.00;;;8.05;;
47866;SDS011;33628;50.806;11.586;2024-01-30T07:09:43;19.00;;;8.77;;
47866;SDS011;33628;50.806;11.586;2024-01-30T07:12:10;16.23;;;7.53;;
47866;SDS011;33628;50.806;11.586;2024-01-30T07:14:38;12.65;;;6.35;;
47866;SDS011;33628;50.806;11.586;2024-01-30T07:17:05;14.95;;;7.15;;
47866;SDS011;33628;50.806;11.586;2024-01-30T07:19:32;12.45;;;6.38;;
47866;SDS011;33628;50.806;11.586;2024-01-30T07:21:59;13.80;;;5.90;;
47866;SDS011;33628;50.806;11.586;2024-01-30T07:24:26;11.43;;;6.47;;
47866;SDS011;33628;50.806;11.586;2024-01-30T07:26:55;12.77;;;6.13;;
47866;SDS011;33628;50.806;11.586;2024-01-30T07:29:22;13.43;;;6.95;;
47866;SDS011;33628;50.806;11.586;2024-01-30T07:31:50;13.45;;;6.80;;
47866;SDS011;33628;50.806;11.586;2024-01-30T07:34:16;19.48;;;7.80;;
47866;SDS011;33628;50.806;11.586;2024-01-30T07:36:43;16.85;;;8.77;;
47866;SDS011;33628;50.806;11.586;2024-01-30T07:39:09;11.88;;;7.15;;
47866;SDS011;33628;50.806;11.586;2024-01-30T07:41:36;11.20;;;7.15;;
47866;SDS011;33628;50.806;11.586;2024-01-30T07:44:03;11.77;;;6.45;;
47866;SDS011;33628;50.806;11.586;2024-01-30T07:46:29;13.65;;;6.50;;
47866;SDS011;33628;50.806;11.586;2024-01-30T07:48:57;11.80;;;6.25;;
47866;SDS011;33628;50.806;11.586;2024-01-30T07:51:24;14.50;;;5.88;;
47866;SDS011;33628;50.806;11.586;2024-01-30T07:53:54;9.68;;;5.43;;
47866;SDS011;33628;50.806;11.586;2024-01-30T07:56:21;13.10;;;6.22;;
47866;SDS011;33628;50.806;11.586;2024-01-30T07:58:47;12.60;;;6.70;;
47866;SDS011;33628;50.806;11.586;2024-01-30T08:01:14;14.60;;;6.28;;
47866;SDS011;33628;50.806;11.586;2024-01-30T08:03:41;11.32;;;5.68;;
47866;SDS011;33628;50.806;11.586;2024-01-30T08:06:09;12.50;;;6.20;;
47866;SDS011;33628;50.806;11.586;2024-01-30T08:08:36;12.65;;;6.55;;
47866;SDS011;33628;50.806;11.586;2024-01-30T08:11:03;13.50;;;7.15;;
47866;SDS011;33628;50.806;11.586;2024-01-30T08:13:30;14.38;;;6.43;;
47866;SDS011;33628;50.806;11.586;2024-01-30T08:15:56;13.18;;;6.40;;
47866;SDS011;33628;50.806;11.586;2024-01-30T08:18:23;15.25;;;6.65;;
47866;SDS011;33628;50.806;11.586;2024-01-30T08:20:50;12.18;;;6.43;;
47866;SDS011;33628;50.806;11.586;2024-01-30T08:23:19;14.50;;;6.82;;
47866;SDS011;33628;50.806;11.586;2024-01-30T08:25:46;15.25;;;6.93;;
47866;SDS011;33628;50.806;11.586;2024-01-30T08:28:12;15.10;;;7.18;;
47866;SDS011;33628;50.806;11.586;2024-01-30T08:30:39;12.43;;;6.32;;
47866;SDS011;33628;50.806;11.586;2024-01-30T08:33:06;12.90;;;6.32;;
47866;SDS011;33628;50.806;11.586;2024-01-30T08:35:32;14.98;;;7.38;;
47866;SDS011;33628;50.806;11.586;2024-01-30T08:37:59;12.23;;;6.82;;
47866;SDS011;33628;50.806;11.586;2024-01-30T08:40:27;16.95;;;7.40;;
47866;SDS011;33628;50.806;11.586;2024-01-30T08:42:54;16.98;;;7.85;;
47866;SDS011;33628;50.806;11.586;2024-01-30T08:45:21;15.18;;;7.05;;
47866;SDS011;33628;50.806;11.586;2024-01-30T08:47:47;15.18;;;6.28;;
47866;SDS011;33628;50.806;11.586;2024-01-30T08:50:14;14.40;;;6.75;;
47866;SDS011;33628;50.806;11.586;2024-01-30T08:52:41;14.10;;;7.00;;
47866;SDS011;33628;50.806;11.586;2024-01-30T08:55:08;12.23;;;6.63;;
47866;SDS011;33628;50.806;11.586;2024-01-30T08:57:36;11.38;;;5.93;;
47866;SDS011;33628;50.806;11.586;2024-01-30T09:00:03;15.73;;;7.07;;
47866;SDS011;33628;50.806;11.586;2024-01-30T09:02:35;11.38;;;5.72;;
47866;SDS011;33628;50.806;11.586;2024-01-30T09:05:01;13.13;;;5.63;;
47866;SDS011;33628;50.806;11.586;2024-01-30T09:07:28;10.02;;;5.53;;
47866;SDS011;33628;50.806;11.586;2024-01-30T09:09:55;10.80;;;5.55;;
47866;SDS011;33628;50.806;11.586;2024-01-30T09:12:22;9.35;;;5.50;;
47866;SDS011;33628;50.806;11.586;2024-01-30T09:14:49;12.27;;;6.40;;
47866;SDS011;33628;50.806;11.586;2024-01-30T09:17:16;13.82;;;6.38;;
47866;SDS011;33628;50.806;11.586;2024-01-30T09:19:43;10.70;;;6.57;;
47866;SDS011;33628;50.806;11.586;2024-01-30T09:22:09;14.32;;;5.85;;
47866;SDS011;33628;50.806;11.586;2024-01-30T09:24:36;17.05;;;6.85;;
47866;SDS011;33628;50.806;11.586;2024-01-30T09:27:02;11.35;;;6.28;;
47866;SDS011;33628;50.806;11.586;2024-01-30T09:29:29;12.20;;;6.70;;
47866;SDS011;33628;50.806;11.586;2024-01-30T09:31:57;12.68;;;6.25;;
47866;SDS011;33628;50.806;11.586;2024-01-30T09:34:24;13.35;;;6.47;;
47866;SDS011;33628;50.806;11.586;2024-01-30T09:36:51;14.88;;;6.95;;
47866;SDS011;33628;50.806;11.586;2024-01-30T09:39:17;13.18;;;6.93;;
47866;SDS011;33628;50.806;11.586;2024-01-30T09:41:48;15.35;;;6.72;;
47866;SDS011;33628;50.806;11.586;2024-01-30T09:44:15;17.75;;;7.20;;
47866;SDS011;33628;50.806;11.586;2024-01-30T09:46:42;10.75;;;5.32;;
47866;SDS011;33628;50.806;11.586;2024-01-30T09:49:10;15.00;;;6.60;;
47866;SDS011;33628;50.806;11.586;2024-01-30T09:51:37;12.75;;;6.53;;
47866;SDS011;33628;50.806;11.586;2024-01-30T09:54:04;15.68;;;5.32;;
47866;SDS011;33628;50.806;11.586;2024-01-30T09:56:31;10.90;;;5.70;;
47866;SDS011;33628;50.806;11.586;2024-01-30T09:58:57;10.30;;;5.22;;
47866;SDS011;33628;50.806;11.586;2024-01-30T10:01:24;13.18;;;5.95;;
47866;SDS011;33628;50.806;11.586;2024-01-30T10:03:51;12.65;;;5.68;;
47866;SDS011;33628;50.806;11.586;2024-01-30T10:06:19;10.48;;;5.82;;
47866;SDS011;33628;50.806;11.586;2024-01-30T10:08:47;12.98;;;6.10;;
47866;SDS011;33628;50.806;11.586;2024-01-30T10:11:13;12.00;;;6.55;;
47866;SDS011;33628;50.806;11.586;2024-01-30T10:13:40;9.82;;;5.25;;
47866;SDS011;33628;50.806;11.586;2024-01-30T10:16:06;11.63;;;6.07;;
47866;SDS011;33628;50.806;11.586;2024-01-30T10:18:33;15.93;;;5.32;;
47866;SDS011;33628;50.806;11.586;2024-01-30T10:20:59;13.98;;;5.80;;
47866;SDS011;33628;50.806;11.586;2024-01-30T10:23:28;11.52;;;5.25;;
47866;SDS011;33628;50.806;11.586;2024-01-30T10:25:55;25.55;;;7.90;;
47866;SDS011;33628;50.806;11.586;2024-01-30T10:28:21;21.60;;;9.55;;
47866;SDS011;33628;50.806;11.586;2024-01-30T10:30:56;23.05;;;7.95;;
47866;SDS011;33628;50.806;11.586;2024-01-30T10:35:51;15.25;;;6.50;;
47866;SDS011;33628;50.806;11.586;2024-01-30T10:38:19;317.65;;;235.27;;
47866;SDS011;33628;50.806;11.586;2024-01-30T10:40:47;1999.90;;;999.90;;
47866;SDS011;33628;50.806;11.586;2024-01-30T10:43:16;1999.90;;;999.90;;
47866;SDS011;33628;50.806;11.586;2024-01-30T10:45:46;1999.90;;;999.90;;
47866;SDS011;33628;50.806;11.586;2024-01-30T10:48:16;1999.90;;;999.90;;
47866;SDS011;33628;50.806;11.586;2024-01-30T10:50:44;1999.90;;;999.90;;
47866;SDS011;33628;50.806;11.586;2024-01-30T10:53:11;1999.90;;;999.90;;
47866;SDS011;33628;50.806;11.586;2024-01-30T10:55:39;1999.90;;;999.90;;
47866;SDS011;33628;50.806;11.586;2024-01-30T10:58:07;1999.90;;;999.90;;
47866;SDS011;33628;50.806;11.586;2024-01-30T11:00:34;1999.90;;;999.90;;
47866;SDS011;33628;50.806;11.586;2024-01-30T11:03:01;1999.90;;;999.90;;
47866;SDS011;33628;50.806;11.586;2024-01-30T11:05:27;1999.90;;;999.90;;
47866;SDS011;33628;50.806;11.586;2024-01-30T11:07:55;1999.90;;;999.90;;
47866;SDS011;33628;50.806;11.586;2024-01-30T11:10:21;1999.90;;;999.90;;
47866;SDS011;33628;50.806;11.586;2024-01-30T11:12:51;1999.90;;;999.90;;
47866;SDS011;33628;50.806;11.586;2024-01-30T11:15:19;1999.90;;;999.90;;
47866;SDS011;33628;50.806;11.586;2024-01-30T11:17:50;1999.90;;;999.90;;
47866;SDS011;33628;50.806;11.586;2024-01-30T11:20:19;1999.90;;;999.90;;
47866;SDS011;33628;50.806;11.586;2024-01-30T11:22:47;1999.90;;;999.90;;
47866;SDS011;33628;50.806;11.586;2024-01-30T11:25:15;1999.90;;;999.90;;
47866;SDS011;33628;50.806;11.586;2024-01-30T11:27:42;1999.90;;;999.90;;
47866;SDS011;33628;50.806;11.586;2024-01-30T11:30:10;1999.90;;;999.90;;
47866;SDS011;33628;50.806;11.586;2024-01-30T11:32:38;1904.18;;;999.90;;
47866;SDS011;33628;50.806;11.586;2024-01-30T11:35:05;1999.90;;;999.90;;
47866;SDS011;33628;50.806;11.586;2024-01-30T11:37:32;1999.90;;;999.90;;
47866;SDS011;33628;50.806;11.586;2024-01-30T11:40:03;1999.90;;;999.90;;
47866;SDS011;33628;50.806;11.586;2024-01-30T11:42:30;1999.90;;;999.90;;
47866;SDS011;33628;50.806;11.586;2024-01-30T11:44:59;1999.90;;;999.90;;
47866;SDS011;33628;50.806;11.586;2024-01-30T11:47:27;1999.90;;;999.90;;
47866;SDS011;33628;50.806;11.586;2024-01-30T11:49:56;1999.90;;;999.90;;
47866;SDS011;33628;50.806;11.586;2024-01-30T11:52:23;1999.90;;;999.90;;
47866;SDS011;33628;50.806;11.586;2024-01-30T11:54:50;1999.90;;;999.90;;
47866;SDS011;33628;50.806;11.586;2024-01-30T11:57:17;1999.90;;;999.90;;
47866;SDS011;33628;50.806;11.586;2024-01-30T11:59:44;1999.90;;;999.90;;
47866;SDS011;33628;50.806;11.586;2024-01-30T12:02:15;1999.90;;;999.90;;
47866;SDS011;33628;50.806;11.586;2024-01-30T12:04:42;1999.90;;;999.90;;
47866;SDS011;33628;50.806;11.586;2024-01-30T12:07:11;1999.90;;;999.90;;
47866;SDS011;33628;50.806;11.586;2024-01-30T12:09:38;1999.90;;;999.90;;
47866;SDS011;33628;50.806;11.586;2024-01-30T12:12:06;1999.90;;;999.90;;
47866;SDS011;33628;50.806;11.586;2024-01-30T12:14:38;1999.90;;;999.90;;
47866;SDS011;33628;50.806;11.586;2024-01-30T12:17:06;1999.90;;;999.90;;
47866;SDS011;33628;50.806;11.586;2024-01-30T12:19:34;1999.90;;;999.90;;
47866;SDS011;33628;50.806;11.586;2024-01-30T12:22:01;1999.90;;;999.90;;
47866;SDS011;33628;50.806;11.586;2024-01-30T12:24:30;1999.90;;;999.90;;
47866;SDS011;33628;50.806;11.586;2024-01-30T12:26:57;1999.90;;;999.90;;
47866;SDS011;33628;50.806;11.586;2024-01-30T12:29:24;1999.90;;;999.90;;
47866;SDS011;33628;50.806;11.586;2024-01-30T12:31:52;1999.90;;;999.90;;
47866;SDS011;33628;50.806;11.586;2024-01-30T12:34:19;1999.90;;;999.90;;
47866;SDS011;33628;50.806;11.586;2024-01-30T12:36:46;1999.90;;;999.90;;
47866;SDS011;33628;50.806;11.586;2024-01-30T12:39:14;1999.90;;;999.90;;
47866;SDS011;33628;50.806;11.586;2024-01-30T12:41:43;1935.88;;;999.90;;
47866;SDS011;33628;50.806;11.586;2024-01-30T12:44:09;200.95;;;122.05;;
47866;SDS011;33628;50.806;11.586;2024-01-30T12:46:36;1254.70;;;775.30;;
47866;SDS011;33628;50.806;11.586;2024-01-30T12:49:03;73.32;;;40.80;;
47866;SDS011;33628;50.806;11.586;2024-01-30T12:51:29;12.80;;;5.75;;
47866;SDS011;33628;50.806;11.586;2024-01-30T12:53:56;10.93;;;5.22;;
47866;SDS011;33628;50.806;11.586;2024-01-30T12:56:23;12.52;;;5.40;;
47866;SDS011;33628;50.806;11.586;2024-01-30T12:58:51;14.77;;;5.70;;
47866;SDS011;33628;50.806;11.586;2024-01-30T13:01:18;9.52;;;4.50;;
47866;SDS011;33628;50.806;11.586;2024-01-30T13:03:44;7.63;;;4.97;;
47866;SDS011;33628;50.806;11.586;2024-01-30T13:06:11;9.57;;;5.00;;
47866;SDS011;33628;50.806;11.586;2024-01-30T13:08:38;6.85;;;4.40;;
47866;SDS011;33628;50.806;11.586;2024-01-30T13:11:05;12.32;;;5.55;;
47866;SDS011;33628;50.806;11.586;2024-01-30T13:13:33;7.53;;;4.25;;
47866;SDS011;33628;50.806;11.586;2024-01-30T13:16:02;12.75;;;5.90;;
47866;SDS011;33628;50.806;11.586;2024-01-30T13:18:30;9.02;;;4.50;;
47866;SDS011;33628;50.806;11.586;2024-01-30T13:20:56;12.85;;;3.80;;
47866;SDS011;33628;50.806;11.586;2024-01-30T13:23:23;7.15;;;4.57;;
47866;SDS011;33628;50.806;11.586;2024-01-30T13:25:51;7.53;;;3.88;;
47866;SDS011;33628;50.806;11.586;2024-01-30T13:28:19;7.22;;;4.32;;
47866;SDS011;33628;50.806;11.586;2024-01-30T13:30:52;9.18;;;4.10;;
47866;SDS011;33628;50.806;11.586;2024-01-30T13:33:20;58.55;;;30.17;;
47866;SDS011;33628;50.806;11.586;2024-01-30T13:35:47;9.25;;;5.07;;
47866;SDS011;33628;50.806;11.586;2024-01-30T13:38:14;8.60;;;3.90;;
47866;SDS011;33628;50.806;11.586;2024-01-30T13:40:41;8.05;;;4.05;;
47866;SDS011;33628;50.806;11.586;2024-01-30T13:43:08;6.50;;;3.75;;
47866;SDS011;33628;50.806;11.586;2024-01-30T13:45:35;9.20;;;4.15;;
47866;SDS011;33628;50.806;11.586;2024-01-30T13:48:02;10.93;;;4.57;;
47866;SDS011;33628;50.806;11.586;2024-01-30T13:50:30;9.75;;;4.22;;
47866;SDS011;33628;50.806;11.586;2024-01-30T13:52:58;5.57;;;3.45;;
47866;SDS011;33628;50.806;11.586;2024-01-30T13:55:25;10.65;;;4.28;;
47866;SDS011;33628;50.806;11.586;2024-01-30T13:57:52;8.40;;;4.38;;
47866;SDS011;33628;50.806;11.586;2024-01-30T14:00:18;8.30;;;4.50;;
47866;SDS011;33628;50.806;11.586;2024-01-30T14:02:48;9.15;;;4.90;;
47866;SDS011;33628;50.806;11.586;2024-01-30T14:05:14;11.77;;;4.95;;
47866;SDS011;33628;50.806;11.586;2024-01-30T14:07:42;11.48;;;5.45;;
47866;SDS011;33628;50.806;11.586;2024-01-30T14:10:10;11.20;;;5.40;;
47866;SDS011;33628;50.806;11.586;2024-01-30T14:12:37;10.77;;;4.70;;
47866;SDS011;33628;50.806;11.586;2024-01-30T14:15:04;8.70;;;4.50;;